Time;durP1;ratioP1;P1;durP2;ratioP2;P2;SDS_P1;SDS_P2;PMS_P1;PMS_P2;Temp;Humidity;BMP_temperature;BMP_pressure;BME280_temperature;BME280_humidity;BME280_pressure;Samples;Min_cycle;Max_cycle;Signal;HPM_P1;HPM_P2
2024/04/05 00:01:24;;;;;;;14.88;4.03;;;11.70;99.90;;;;;;5045562;28;20033;-72
2024/04/05 00:03:51;;;;;;;19.75;3.70;;;11.80;99.90;;;;;;5043754;28;20510;-72
2024/04/05 00:06:16;;;;;;;18.00;3.65;;;11.80;99.90;;;;;;5037563;28;20421;-70
2024/04/05 00:08:42;;;;;;;19.52;3.33;;;11.70;99.90;;;;;;5046162;28;20033;-72
2024/04/05 00:11:08;;;;;;;15.23;3.08;;;11.70;99.90;;;;;;5037338;28;20130;-73
2024/04/05 00:13:35;;;;;;;20.45;3.45;;;11.70;99.90;;;;;;5047753;28;20033;-72
2024/04/05 00:16:04;;;;;;;16.25;3.22;;;11.70;99.90;;;;;;5044102;28;20417;-70
2024/04/05 00:18:36;;;;;;;18.08;3.70;;;11.70;99.90;;;;;;5033291;28;20036;-71
2024/04/05 00:21:03;;;;;;;25.77;3.92;;;11.70;99.90;;;;;;5042151;28;20410;-71
2024/04/05 00:23:30;;;;;;;21.52;3.95;;;11.70;99.90;;;;;;5045545;28;20043;-72
2024/04/05 00:25:59;;;;;;;19.52;2.97;;;11.70;99.90;;;;;;5047255;28;20056;-73
2024/04/05 00:28:27;;;;;;;16.13;2.58;;;11.80;99.90;;;;;;5045039;28;20033;-72
2024/04/05 00:30:53;;;;;;;19.17;3.92;;;11.80;99.90;;;;;;5035318;28;20116;-71
2024/04/05 00:33:18;;;;;;;22.85;2.42;;;11.80;99.90;;;;;;5040566;28;20513;-69
2024/04/05 00:35:55;;;;;;;21.75;2.97;;;11.90;99.90;;;;;;5035914;28;20029;-73
2024/04/05 00:38:23;;;;;;;21.33;2.30;;;11.90;99.90;;;;;;5037158;28;20043;-72
2024/04/05 00:40:49;;;;;;;20.13;3.75;;;11.90;99.90;;;;;;5041998;28;20033;-72
2024/04/05 00:43:15;;;;;;;16.17;4.28;;;11.90;99.90;;;;;;5029109;28;20075;-72
2024/04/05 00:45:41;;;;;;;15.40;1.67;;;11.90;99.90;;;;;;5043239;28;20041;-70
2024/04/05 00:48:08;;;;;;;14.40;3.05;;;11.80;99.90;;;;;;5043342;28;20037;-72
2024/04/05 00:50:35;;;;;;;16.23;2.72;;;11.80;99.90;;;;;;5047073;28;20040;-72
2024/04/05 00:53:01;;;;;;;14.80;1.95;;;11.80;99.90;;;;;;5014496;28;20038;-69
2024/04/05 00:55:27;;;;;;;16.80;2.33;;;11.70;99.90;;;;;;5037928;28;20047;-72
2024/04/05 00:58:00;;;;;;;9.30;1.70;;;11.70;99.90;;;;;;5040161;28;20033;-72
2024/04/05 01:00:28;;;;;;;14.07;3.72;;;11.80;99.90;;;;;;5038716;28;20035;-73
2024/04/05 01:02:53;;;;;;;16.50;2.78;;;11.80;99.90;;;;;;5039019;28;20037;-71
2024/04/05 01:05:19;;;;;;;9.90;2.08;;;11.80;99.90;;;;;;5031594;28;20479;-69
2024/04/05 01:07:47;;;;;;;14.77;2.83;;;11.80;99.90;;;;;;5043392;28;20063;-71
2024/04/05 01:10:13;;;;;;;11.63;2.05;;;11.80;99.90;;;;;;5037812;28;20029;-70
2024/04/05 01:12:39;;;;;;;19.60;2.75;;;11.80;99.90;;;;;;5043266;28;20055;-70
2024/04/05 01:15:05;;;;;;;10.13;2.30;;;11.80;99.90;;;;;;5035645;28;20048;-72
2024/04/05 01:17:31;;;;;;;21.35;2.38;;;11.90;99.90;;;;;;5043322;28;20127;-73
2024/04/05 01:19:58;;;;;;;23.20;2.60;;;11.90;99.90;;;;;;5044660;28;20826;-72
2024/04/05 01:22:40;;;;;;;23.88;3.92;;;11.90;99.90;;;;;;5045021;28;20041;-72
2024/04/05 01:25:06;;;;;;;18.23;3.67;;;11.90;99.90;;;;;;5042079;28;20033;-72
2024/04/05 01:27:31;;;;;;;12.50;2.53;;;12.00;99.90;;;;;;5017309;28;20037;-73
2024/04/05 01:29:57;;;;;;;15.82;2.58;;;11.90;99.90;;;;;;5032598;28;20029;-73
2024/04/05 01:32:23;;;;;;;19.77;2.55;;;12.00;99.90;;;;;;5042794;28;20066;-73
2024/04/05 01:34:48;;;;;;;21.50;2.47;;;12.00;99.90;;;;;;5043442;28;20087;-74
2024/04/05 01:37:14;;;;;;;16.15;2.03;;;12.00;99.90;;;;;;5045348;28;20045;-72
2024/04/05 01:39:39;;;;;;;22.58;2.78;;;12.00;99.90;;;;;;5044368;28;20107;-72
2024/04/05 01:42:05;;;;;;;23.92;2.88;;;12.00;99.90;;;;;;5043510;28;20061;-73
2024/04/05 01:44:31;;;;;;;21.77;2.85;;;12.00;99.90;;;;;;5045111;28;20453;-72
2024/04/05 01:46:57;;;;;;;15.82;2.33;;;12.00;99.90;;;;;;5034198;28;20444;-72
2024/04/05 01:49:22;;;;;;;14.23;3.13;;;12.00;99.90;;;;;;5040767;28;20033;-72
2024/04/05 01:51:48;;;;;;;18.00;2.60;;;11.90;99.90;;;;;;5042364;28;20087;-72
2024/04/05 01:54:13;;;;;;;24.63;4.10;;;12.00;99.90;;;;;;5044713;28;20037;-73
2024/04/05 01:56:40;;;;;;;17.85;2.53;;;11.90;99.90;;;;;;5047307;28;20037;-71
2024/04/05 01:59:07;;;;;;;17.38;1.95;;;11.90;99.90;;;;;;5047357;28;20045;-72
2024/04/05 02:01:34;;;;;;;30.52;3.22;;;11.90;99.90;;;;;;5048709;28;20037;-71
2024/04/05 02:03:59;;;;;;;21.73;2.42;;;11.90;99.90;;;;;;5043078;28;20037;-70
2024/04/05 02:06:25;;;;;;;18.88;2.80;;;11.90;99.90;;;;;;5041774;28;20046;-71
2024/04/05 02:08:51;;;;;;;23.13;3.65;;;11.90;99.90;;;;;;5042648;28;20043;-73
2024/04/05 02:11:16;;;;;;;25.92;3.75;;;11.90;99.90;;;;;;5045858;28;20037;-72
2024/04/05 02:13:42;;;;;;;14.23;2.65;;;11.90;99.90;;;;;;5046190;28;20087;-71
2024/04/05 02:16:08;;;;;;;17.50;2.65;;;11.90;99.90;;;;;;5040796;28;20052;-72
2024/04/05 02:18:33;;;;;;;23.90;3.08;;;11.90;99.90;;;;;;5047006;28;20048;-72
2024/04/05 02:21:00;;;;;;;14.02;2.90;;;11.90;99.90;;;;;;5047076;28;20040;-70
2024/04/05 02:23:26;;;;;;;21.15;3.40;;;11.90;99.90;;;;;;5039121;28;20045;-71
2024/04/05 02:25:51;;;;;;;15.18;2.70;;;11.90;99.90;;;;;;5041556;28;20033;-72
2024/04/05 02:28:17;;;;;;;11.23;2.53;;;11.90;99.90;;;;;;5045907;28;20036;-73
2024/04/05 02:30:43;;;;;;;14.38;2.33;;;11.90;99.90;;;;;;5038229;28;20402;-71
2024/04/05 02:33:12;;;;;;;19.33;3.28;;;11.90;99.90;;;;;;5043169;28;20094;-71
2024/04/05 02:35:38;;;;;;;16.08;2.47;;;11.90;99.90;;;;;;5046265;28;20068;-68
2024/04/05 02:38:04;;;;;;;11.18;2.00;;;11.90;99.90;;;;;;5045878;28;20033;-71
2024/04/05 02:40:29;;;;;;;21.15;3.17;;;11.90;99.90;;;;;;5044058;28;20036;-71
2024/04/05 02:42:55;;;;;;;16.30;2.17;;;11.90;99.90;;;;;;5043487;28;20490;-72
2024/04/05 02:45:21;;;;;;;19.35;4.10;;;11.90;99.90;;;;;;5045351;28;20044;-73
2024/04/05 02:47:46;;;;;;;30.88;3.58;;;11.90;99.90;;;;;;5047426;28;20072;-74
2024/04/05 02:50:12;;;;;;;20.02;2.15;;;11.90;99.90;;;;;;5043356;28;20033;-70
2024/04/05 02:52:38;;;;;;;16.40;2.70;;;12.00;99.90;;;;;;5057772;28;20187;-69
2024/04/05 02:55:05;;;;;;;19.98;2.67;;;11.90;99.90;;;;;;5045576;28;20029;-72
2024/04/05 02:57:31;;;;;;;21.63;3.35;;;11.90;99.90;;;;;;5039898;28;20036;-72
2024/04/05 02:59:56;;;;;;;16.65;3.08;;;11.90;99.90;;;;;;5043692;28;20032;-70
2024/04/05 03:02:22;;;;;;;16.58;2.92;;;11.90;99.90;;;;;;5044106;28;20160;-71
2024/04/05 03:04:47;;;;;;;17.80;3.42;;;11.90;99.90;;;;;;5045435;28;20038;-72
2024/04/05 03:07:14;;;;;;;17.02;2.20;;;11.90;99.90;;;;;;5045048;28;20126;-71
2024/04/05 03:09:42;;;;;;;15.15;3.28;;;12.00;99.90;;;;;;5043145;28;20033;-71
2024/04/05 03:12:08;;;;;;;15.80;2.42;;;11.90;99.90;;;;;;5042687;28;20067;-71
2024/04/05 03:14:33;;;;;;;11.80;2.72;;;11.90;99.90;;;;;;5046015;28;20494;-70
2024/04/05 03:16:59;;;;;;;22.13;2.88;;;12.00;99.90;;;;;;5046312;28;20033;-71
2024/04/05 03:19:25;;;;;;;21.77;2.92;;;11.90;99.90;;;;;;5044507;28;20047;-72
2024/04/05 03:21:50;;;;;;;15.30;2.28;;;11.90;99.90;;;;;;5045390;28;20175;-72
2024/04/05 03:24:16;;;;;;;16.50;3.08;;;11.90;99.90;;;;;;5047186;28;20116;-72
2024/04/05 03:26:42;;;;;;;22.60;2.50;;;11.80;99.90;;;;;;5049179;28;20033;-72
2024/04/05 03:29:11;;;;;;;12.30;2.55;;;11.80;99.90;;;;;;5041719;28;20417;-71
2024/04/05 03:31:37;;;;;;;21.50;3.53;;;11.70;99.90;;;;;;5039933;28;20048;-70
2024/04/05 03:34:03;;;;;;;14.43;2.70;;;11.70;99.90;;;;;;5044535;28;20043;-72
2024/04/05 03:36:29;;;;;;;16.60;2.17;;;11.60;99.90;;;;;;5045203;28;20041;-73
2024/04/05 03:39:00;;;;;;;21.50;3.85;;;11.60;99.90;;;;;;5046471;28;20045;-70
2024/04/05 03:41:29;;;;;;;22.60;3.00;;;11.60;99.90;;;;;;5030882;28;20112;-71
2024/04/05 03:43:55;;;;;;;29.77;3.95;;;11.60;99.90;;;;;;5046578;28;20167;-72
2024/04/05 03:46:22;;;;;;;15.63;2.20;;;11.60;99.90;;;;;;5022522;28;20113;-71
2024/04/05 03:48:47;;;;;;;20.83;2.42;;;11.50;99.90;;;;;;5038795;28;20033;-71
2024/04/05 03:51:13;;;;;;;20.63;2.95;;;11.50;99.90;;;;;;5031947;28;20695;-71
2024/04/05 03:53:39;;;;;;;19.58;2.80;;;11.50;99.90;;;;;;5045998;28;20100;-68
2024/04/05 03:56:04;;;;;;;24.67;4.20;;;11.50;99.90;;;;;;5030990;28;20057;-72
2024/04/05 03:58:30;;;;;;;10.00;2.45;;;11.50;99.90;;;;;;5038504;28;20108;-73
2024/04/05 04:00:57;;;;;;;15.25;3.35;;;11.50;99.90;;;;;;5038426;28;20049;-71
2024/04/05 04:03:22;;;;;;;12.45;2.80;;;11.50;99.90;;;;;;5035156;28;20172;-72
2024/04/05 04:05:49;;;;;;;15.15;3.63;;;11.50;99.90;;;;;;5028017;28;20112;-73
2024/04/05 04:08:15;;;;;;;20.58;2.78;;;11.50;99.90;;;;;;5029890;28;20042;-71
2024/04/05 04:10:42;;;;;;;23.67;3.70;;;11.40;99.90;;;;;;5032163;28;20037;-70
2024/04/05 04:13:08;;;;;;;14.52;2.78;;;11.40;99.90;;;;;;5017900;28;20061;-72
2024/04/05 04:15:34;;;;;;;22.77;3.65;;;11.40;99.90;;;;;;5041760;28;20509;-72
2024/04/05 04:18:00;;;;;;;23.98;3.33;;;11.40;99.90;;;;;;5026208;28;20040;-70
2024/04/05 04:20:26;;;;;;;19.15;3.50;;;11.40;99.90;;;;;;5039761;28;20445;-71
2024/04/05 04:22:52;;;;;;;20.40;3.05;;;11.40;99.90;;;;;;5043934;28;20036;-74
2024/04/05 04:25:17;;;;;;;21.08;2.45;;;11.40;99.90;;;;;;5046008;28;20024;-71
2024/04/05 04:27:43;;;;;;;18.60;3.47;;;11.40;99.90;;;;;;5046431;28;20025;-70
2024/04/05 04:30:09;;;;;;;12.05;2.25;;;11.40;99.90;;;;;;5035549;28;20096;-71
2024/04/05 04:32:35;;;;;;;12.68;3.00;;;11.50;99.90;;;;;;5041216;28;20037;-71
2024/04/05 04:35:01;;;;;;;16.50;2.80;;;11.40;99.90;;;;;;5034608;28;20039;-72
2024/04/05 04:37:27;;;;;;;21.75;3.17;;;11.40;99.90;;;;;;5038382;28;20086;-71
2024/04/05 04:39:52;;;;;;;17.23;2.00;;;11.40;99.90;;;;;;5042667;28;20033;-73
2024/04/05 04:42:18;;;;;;;14.05;2.60;;;11.40;99.90;;;;;;5044860;28;20188;-73
2024/04/05 04:44:43;;;;;;;17.80;3.03;;;11.40;99.90;;;;;;5041236;28;20047;-70
2024/04/05 04:47:09;;;;;;;25.63;3.30;;;11.50;99.90;;;;;;5028125;28;20200;-72
2024/04/05 04:49:35;;;;;;;11.27;2.15;;;11.50;99.90;;;;;;5036599;28;20512;-72
2024/04/05 04:52:01;;;;;;;20.92;3.08;;;11.50;99.90;;;;;;5030392;28;20037;-70
2024/04/05 04:54:28;;;;;;;16.77;2.92;;;11.50;99.90;;;;;;5034563;28;20124;-73
2024/04/05 04:56:54;;;;;;;13.23;2.08;;;11.50;99.90;;;;;;5038843;28;20506;-70
2024/04/05 04:59:20;;;;;;;9.38;2.38;;;11.50;99.90;;;;;;5043310;28;20044;-74
2024/04/05 05:01:45;;;;;;;12.77;2.35;;;11.40;99.90;;;;;;5043246;28;20067;-71
2024/04/05 05:04:14;;;;;;;11.00;2.20;;;11.40;99.90;;;;;;5044140;28;20044;-73
2024/04/05 05:06:39;;;;;;;14.25;2.30;;;11.40;99.90;;;;;;5043976;28;20209;-71
2024/04/05 05:09:05;;;;;;;17.08;3.03;;;11.40;99.90;;;;;;5045916;28;20119;-71
2024/04/05 05:11:30;;;;;;;18.98;2.67;;;11.30;99.90;;;;;;5035222;28;20123;-71
2024/04/05 05:13:56;;;;;;;19.63;2.08;;;11.30;99.90;;;;;;5048667;28;20501;-72
2024/04/05 05:16:23;;;;;;;19.10;2.70;;;11.30;99.90;;;;;;5040039;28;20561;-72
2024/04/05 05:18:49;;;;;;;20.50;2.60;;;11.40;99.90;;;;;;5043684;28;20044;-71
2024/04/05 05:21:14;;;;;;;14.93;2.92;;;11.40;99.90;;;;;;5044016;28;20033;-71
2024/04/05 05:23:40;;;;;;;17.42;3.05;;;11.50;99.90;;;;;;5044806;28;20082;-71
2024/04/05 05:26:06;;;;;;;12.35;1.90;;;11.50;99.90;;;;;;5045275;28;20056;-71
2024/04/05 05:28:32;;;;;;;9.43;1.95;;;11.50;99.90;;;;;;5042440;28;20056;-73
2024/04/05 05:30:59;;;;;;;9.00;2.05;;;11.50;99.90;;;;;;5042739;28;20041;-71
2024/04/05 05:33:24;;;;;;;12.98;2.78;;;11.50;99.90;;;;;;5047262;28;20658;-72
2024/04/05 05:35:50;;;;;;;11.65;2.10;;;11.60;99.90;;;;;;5048307;28;20082;-71
2024/04/05 05:38:15;;;;;;;18.23;2.72;;;11.60;99.90;;;;;;5049812;28;20036;-71
2024/04/05 05:40:41;;;;;;;18.45;3.70;;;11.60;99.90;;;;;;5045557;28;20120;-73
2024/04/05 05:43:06;;;;;;;12.07;2.00;;;11.70;99.90;;;;;;5049282;28;20811;-71
2024/04/05 05:45:32;;;;;;;10.27;1.65;;;11.70;99.90;;;;;;5048387;28;20033;-72
2024/04/05 05:47:58;;;;;;;13.18;2.35;;;11.80;99.90;;;;;;5041436;28;20033;-73
2024/04/05 05:50:24;;;;;;;15.98;3.95;;;11.80;99.90;;;;;;5046988;28;20490;-73
2024/04/05 05:52:50;;;;;;;13.25;2.22;;;11.80;99.90;;;;;;5048719;28;20033;-72
2024/04/05 05:55:16;;;;;;;7.95;1.58;;;11.90;99.90;;;;;;5044164;28;20149;-71
2024/04/05 05:57:42;;;;;;;16.77;2.55;;;12.00;99.90;;;;;;5045139;28;20064;-72
2024/04/05 06:00:12;;;;;;;13.88;2.17;;;12.00;99.90;;;;;;5037534;28;20052;-72
2024/04/05 06:02:39;;;;;;;11.02;2.40;;;12.00;99.90;;;;;;5047590;28;20503;-70
2024/04/05 06:05:05;;;;;;;12.90;2.05;;;12.10;99.90;;;;;;5047555;28;20036;-70
2024/04/05 06:07:31;;;;;;;11.07;2.05;;;12.30;99.90;;;;;;5046363;28;20497;-72
2024/04/05 06:09:58;;;;;;;8.18;1.40;;;12.50;99.90;;;;;;5045514;28;20033;-71
2024/04/05 06:12:25;;;;;;;13.68;1.65;;;12.60;99.90;;;;;;5043624;28;20037;-71
2024/04/05 06:14:55;;;;;;;7.57;2.10;;;12.60;99.90;;;;;;5048080;28;20619;-73
2024/04/05 06:17:23;;;;;;;17.73;2.60;;;12.60;99.90;;;;;;5047713;28;20123;-72
2024/04/05 06:19:58;;;;;;;7.95;1.75;;;12.60;99.90;;;;;;5045408;28;20033;-72
2024/04/05 06:22:29;;;;;;;9.15;1.77;;;12.60;99.90;;;;;;5048007;28;20473;-72
2024/04/05 06:24:55;;;;;;;8.45;1.63;;;12.60;99.90;;;;;;5046985;28;20029;-70
2024/04/05 06:27:21;;;;;;;10.88;2.50;;;12.70;99.90;;;;;;5048597;28;20051;-72
2024/04/05 06:29:52;;;;;;;5.65;1.75;;;12.70;99.90;;;;;;5044010;28;20059;-70
2024/04/05 06:32:17;;;;;;;10.32;2.03;;;12.80;99.90;;;;;;5043210;28;20040;-71
2024/04/05 06:34:44;;;;;;;10.63;2.22;;;12.80;99.90;;;;;;5045738;28;20033;-72
2024/04/05 06:37:11;;;;;;;12.63;1.85;;;12.80;99.90;;;;;;5043708;28;20053;-72
2024/04/05 06:39:37;;;;;;;9.57;1.67;;;12.90;99.90;;;;;;5048006;28;20029;-70
2024/04/05 06:42:04;;;;;;;17.02;2.63;;;12.90;99.90;;;;;;5045529;28;20056;-72
2024/04/05 06:44:35;;;;;;;6.78;1.77;;;13.00;99.90;;;;;;5046178;28;20033;-71
2024/04/05 06:47:19;;;;;;;11.57;2.03;;;13.10;99.90;;;;;;5045609;28;20033;-70
2024/04/05 06:49:44;;;;;;;11.82;1.92;;;13.30;99.90;;;;;;5017319;28;20411;-73
2024/04/05 06:52:11;;;;;;;7.78;1.63;;;13.50;99.90;;;;;;5026155;28;20041;-70
2024/04/05 06:54:45;;;;;;;7.60;1.58;;;13.60;99.90;;;;;;5040150;28;20045;-69
2024/04/05 06:57:11;;;;;;;6.93;1.33;;;13.60;99.90;;;;;;5023490;28;20120;-72
2024/04/05 06:59:37;;;;;;;13.63;2.30;;;13.60;99.90;;;;;;5024205;28;20030;-70
2024/04/05 07:02:03;;;;;;;7.70;1.30;;;13.60;99.90;;;;;;5048546;28;20053;-72
2024/04/05 07:04:32;;;;;;;12.73;2.60;;;13.60;99.90;;;;;;5041300;28;20524;-71
2024/04/05 07:06:58;;;;;;;7.38;1.45;;;13.60;99.90;;;;;;5030598;28;20954;-73
2024/04/05 07:09:23;;;;;;;9.80;1.88;;;13.60;99.90;;;;;;5025514;28;20050;-72
2024/04/05 07:11:50;;;;;;;5.65;1.70;;;13.70;99.90;;;;;;5025786;28;20402;-73
2024/04/05 07:14:17;;;;;;;8.95;1.25;;;13.70;99.90;;;;;;5037607;28;20486;-73
2024/04/05 07:16:43;;;;;;;6.57;1.35;;;13.70;99.90;;;;;;5040063;28;20040;-73
2024/04/05 07:19:10;;;;;;;10.90;1.38;;;13.80;99.90;;;;;;5042660;28;20090;-73
2024/04/05 07:21:36;;;;;;;9.70;1.70;;;13.80;99.90;;;;;;5044860;28;20040;-72
2024/04/05 07:24:02;;;;;;;6.07;1.30;;;13.90;99.90;;;;;;5044186;28;20116;-72
2024/04/05 07:26:27;;;;;;;11.95;2.53;;;14.00;99.90;;;;;;5041685;28;20033;-72
2024/04/05 07:28:53;;;;;;;4.30;1.00;;;14.00;99.90;;;;;;5045656;28;20087;-72
2024/04/05 07:31:20;;;;;;;15.20;2.47;;;13.90;99.90;;;;;;5034356;28;20052;-70
2024/04/05 07:33:46;;;;;;;8.38;1.10;;;13.80;99.90;;;;;;5028087;28;20048;-71
2024/04/05 07:36:12;;;;;;;4.72;1.42;;;13.80;99.90;;;;;;5052763;28;20101;-73
2024/04/05 07:38:37;;;;;;;3.58;0.98;;;13.80;99.90;;;;;;5040784;28;20509;-69
2024/04/05 07:41:04;;;;;;;3.92;1.00;;;13.80;99.90;;;;;;5034251;28;20056;-70
2024/04/05 07:43:30;;;;;;;8.73;1.65;;;13.60;99.90;;;;;;5028250;28;20379;-69
2024/04/05 07:45:56;;;;;;;8.85;1.52;;;13.50;99.90;;;;;;5031368;28;20114;-71
2024/04/05 07:48:22;;;;;;;7.82;2.00;;;13.30;99.90;;;;;;5027037;28;20188;-70
2024/04/05 07:50:47;;;;;;;10.50;2.00;;;13.20;99.90;;;;;;5040036;28;20647;-71
2024/04/05 07:53:13;;;;;;;8.05;1.38;;;13.10;99.90;;;;;;5038894;28;20037;-70
2024/04/05 07:55:38;;;;;;;6.65;1.85;;;13.00;99.90;;;;;;5039670;28;20120;-68
2024/04/05 07:58:05;;;;;;;6.57;1.92;;;12.90;99.90;;;;;;5035229;28;20056;-71
2024/04/05 08:00:31;;;;;;;9.70;1.25;;;12.90;99.90;;;;;;5038994;28;20041;-71
2024/04/05 08:02:56;;;;;;;14.10;1.98;;;12.90;99.90;;;;;;5023116;28;21747;-71
2024/04/05 08:05:22;;;;;;;10.70;2.13;;;12.90;99.90;;;;;;5044703;28;20044;-70
2024/04/05 08:07:47;;;;;;;5.45;1.27;;;12.90;99.90;;;;;;5042437;28;20029;-73
2024/04/05 08:10:13;;;;;;;12.43;2.00;;;12.90;99.90;;;;;;5040791;28;20408;-72
2024/04/05 08:12:39;;;;;;;11.65;1.23;;;13.00;99.90;;;;;;5043956;28;20025;-70
2024/04/05 08:15:09;;;;;;;5.40;1.15;;;13.00;99.90;;;;;;5025376;28;20040;-70
2024/04/05 08:17:35;;;;;;;11.63;1.77;;;13.00;99.90;;;;;;5021351;28;20041;-72
2024/04/05 08:20:01;;;;;;;10.48;1.20;;;13.00;99.90;;;;;;5032412;28;20489;-69
2024/04/05 08:22:26;;;;;;;4.53;1.75;;;13.10;99.90;;;;;;5040004;28;20040;-68
2024/04/05 08:24:52;;;;;;;8.77;1.60;;;13.00;99.90;;;;;;5037203;28;20041;-71
2024/04/05 08:27:18;;;;;;;6.68;1.48;;;13.10;99.90;;;;;;5042003;28;20080;-71
2024/04/05 08:29:43;;;;;;;7.65;0.90;;;13.00;99.90;;;;;;5042388;28;20509;-70
2024/04/05 08:32:09;;;;;;;5.97;1.33;;;13.10;99.90;;;;;;5042756;28;20463;-71
2024/04/05 08:34:34;;;;;;;7.07;1.17;;;13.00;99.90;;;;;;5040895;28;20040;-73
2024/04/05 08:37:03;;;;;;;7.05;0.80;;;13.00;99.90;;;;;;5041683;28;20049;-71
2024/04/05 08:39:28;;;;;;;7.65;1.27;;;12.90;99.90;;;;;;5041062;28;20048;-74
2024/04/05 08:42:07;;;;;;;3.47;0.80;;;13.00;99.90;;;;;;5036942;28;20401;-71
2024/04/05 08:44:34;;;;;;;9.13;1.83;;;13.00;99.90;;;;;;5038019;28;20936;-71
2024/04/05 08:46:59;;;;;;;8.18;1.25;;;13.00;99.90;;;;;;5039647;28;20057;-71
2024/04/05 08:49:26;;;;;;;7.03;1.25;;;13.10;99.90;;;;;;5023094;28;20071;-73
2024/04/05 08:51:52;;;;;;;9.02;1.15;;;13.10;99.90;;;;;;5028551;28;20495;-71
2024/04/05 08:54:20;;;;;;;10.70;1.17;;;13.10;99.90;;;;;;5035541;28;20055;-73
2024/04/05 08:56:49;;;;;;;8.07;1.00;;;13.20;99.90;;;;;;5036128;28;20037;-72
2024/04/05 08:59:17;;;;;;;3.63;1.20;;;13.20;99.90;;;;;;5041465;28;20060;-72
2024/04/05 09:01:47;;;;;;;8.27;1.30;;;13.20;99.90;;;;;;5040653;28;20036;-72
2024/04/05 09:04:15;;;;;;;4.20;0.82;;;13.20;99.90;;;;;;5043478;28;20048;-71
2024/04/05 09:06:41;;;;;;;16.42;1.20;;;13.20;99.90;;;;;;5040639;28;20033;-71
2024/04/05 09:09:06;;;;;;;2.78;0.93;;;13.20;99.90;;;;;;5041787;28;20029;-72
2024/04/05 09:11:32;;;;;;;8.38;0.85;;;13.20;99.90;;;;;;5039269;28;20438;-74
2024/04/05 09:13:59;;;;;;;5.22;0.77;;;13.20;99.90;;;;;;5040556;28;20132;-71
2024/04/05 09:16:26;;;;;;;4.40;0.50;;;13.20;99.90;;;;;;5039495;28;20063;-72
2024/04/05 09:18:52;;;;;;;7.28;1.23;;;13.20;99.90;;;;;;5039595;28;20136;-71
2024/04/05 09:21:18;;;;;;;4.68;1.25;;;13.20;99.90;;;;;;5041116;28;20395;-70
2024/04/05 09:23:46;;;;;;;5.72;0.93;;;13.20;99.90;;;;;;5035108;28;20059;-71
2024/04/05 09:26:18;;;;;;;5.72;1.00;;;13.20;99.90;;;;;;5042432;28;20061;-72
2024/04/05 09:28:44;;;;;;;3.15;0.88;;;13.20;99.90;;;;;;5042395;28;20033;-71
2024/04/05 09:31:16;;;;;;;5.03;1.00;;;13.20;99.90;;;;;;5029885;28;20037;-70
2024/04/05 09:33:43;;;;;;;4.68;0.40;;;13.20;99.90;;;;;;5037445;28;20132;-70
2024/04/05 09:36:11;;;;;;;4.97;0.77;;;13.20;99.90;;;;;;5040694;28;20041;-73
2024/04/05 09:38:39;;;;;;;5.10;1.13;;;13.20;99.90;;;;;;5025360;28;20100;-66
2024/04/05 09:41:05;;;;;;;4.30;0.95;;;13.30;99.90;;;;;;5022287;28;20072;-71
2024/04/05 09:43:30;;;;;;;6.03;0.65;;;13.20;99.90;;;;;;5040455;28;20029;-72
2024/04/05 09:45:57;;;;;;;6.32;0.60;;;13.30;99.90;;;;;;5033852;28;22236;-71
2024/04/05 09:48:26;;;;;;;5.25;1.23;;;13.30;99.90;;;;;;5045288;28;20444;-72
2024/04/05 09:50:52;;;;;;;2.00;0.68;;;13.40;99.90;;;;;;5037616;28;20097;-70
2024/04/05 09:53:20;;;;;;;2.95;0.70;;;13.60;99.90;;;;;;5040527;28;20536;-72
2024/04/05 09:55:49;;;;;;;8.30;1.50;;;13.60;99.90;;;;;;5041192;28;20043;-71
2024/04/05 09:58:15;;;;;;;4.00;0.50;;;13.80;99.90;;;;;;5045519;28;20056;-72
2024/04/05 10:00:42;;;;;;;7.55;1.00;;;13.80;99.90;;;;;;5042818;28;20483;-70
2024/04/05 10:03:07;;;;;;;2.58;0.63;;;13.90;99.90;;;;;;5044056;28;20568;-71
2024/04/05 10:05:34;;;;;;;5.55;0.98;;;13.90;99.90;;;;;;5045455;28;20033;-71
2024/04/05 10:08:16;;;;;;;2.90;0.75;;;14.10;99.90;;;;;;5042342;28;20033;-70
2024/04/05 10:10:42;;;;;;;2.53;0.95;;;14.10;99.90;;;;;;5039620;28;20026;-72
2024/04/05 10:13:23;;;;;;;2.05;0.60;;;14.20;99.90;;;;;;5037168;28;20025;-72
2024/04/05 10:16:08;;;;;;;3.92;0.68;;;14.20;99.90;;;;;;5034084;28;20061;-72
2024/04/05 10:18:39;;;;;;;3.15;0.45;;;14.20;99.90;;;;;;5043378;28;20056;-73
2024/04/05 10:21:09;;;;;;;5.63;0.57;;;14.20;99.90;;;;;;5004918;28;20649;-71
2024/04/05 10:23:36;;;;;;;3.58;0.40;;;14.20;99.90;;;;;;5025069;28;20382;-71
2024/04/05 10:26:05;;;;;;;4.00;0.77;;;14.20;99.90;;;;;;5044314;28;20903;-72
2024/04/05 10:28:31;;;;;;;7.65;0.98;;;14.20;99.90;;;;;;5041741;28;20044;-71
2024/04/05 10:31:01;;;;;;;3.22;0.57;;;14.30;99.90;;;;;;5035951;28;20038;-69
2024/04/05 10:33:27;;;;;;;1.83;0.82;;;14.50;99.90;;;;;;5027848;28;20044;-71
2024/04/05 10:35:57;;;;;;;4.40;0.75;;;14.60;99.90;;;;;;5015439;28;20038;-72
2024/04/05 10:38:23;;;;;;;2.70;1.10;;;14.70;99.90;;;;;;5037774;28;20043;-71
2024/04/05 10:41:04;;;;;;;3.58;0.52;;;14.70;99.90;;;;;;5041664;28;20025;-71
2024/04/05 10:43:30;;;;;;;3.08;0.60;;;14.90;99.90;;;;;;5033566;28;20037;-72
2024/04/05 10:45:58;;;;;;;0.85;0.35;;;14.90;99.90;;;;;;5043674;28;20039;-72
2024/04/05 10:48:24;;;;;;;2.72;0.45;;;15.00;99.90;;;;;;5043157;28;20037;-72
2024/04/05 10:50:52;;;;;;;5.20;1.05;;;15.10;99.90;;;;;;5031072;28;20048;-74
2024/04/05 10:53:19;;;;;;;4.32;0.85;;;15.20;99.90;;;;;;5034179;28;20406;-71
2024/04/05 10:55:46;;;;;;;2.33;0.30;;;15.20;99.90;;;;;;5038666;28;20041;-69
2024/04/05 10:58:12;;;;;;;3.10;0.90;;;15.10;99.90;;;;;;5032383;28;20029;-70
2024/04/05 11:00:39;;;;;;;1.65;0.80;;;15.20;99.90;;;;;;5045797;28;20030;-70
2024/04/05 11:03:09;;;;;;;3.22;0.50;;;15.10;99.90;;;;;;5037718;28;20065;-73
2024/04/05 11:05:35;;;;;;;3.00;0.30;;;15.00;99.90;;;;;;5044440;28;20056;-71
2024/04/05 11:08:03;;;;;;;4.32;0.60;;;14.90;99.90;;;;;;5043150;28;20059;-69
2024/04/05 11:10:30;;;;;;;2.72;0.80;;;14.80;99.90;;;;;;5045495;28;20575;-72
2024/04/05 11:12:57;;;;;;;2.97;0.65;;;14.70;99.90;;;;;;5040973;28;20040;-73
2024/04/05 11:15:23;;;;;;;4.63;0.47;;;14.60;99.90;;;;;;5025946;28;20672;-71
2024/04/05 11:18:03;;;;;;;5.50;1.08;;;14.50;99.90;;;;;;5041386;28;20083;-70
2024/04/05 11:20:31;;;;;;;5.05;0.93;;;14.30;99.90;;;;;;5038676;28;20038;-71
2024/04/05 11:23:02;;;;;;;5.55;0.55;;;14.30;99.90;;;;;;5045595;28;21473;-72
2024/04/05 11:25:28;;;;;;;4.20;0.65;;;14.30;99.90;;;;;;5046343;28;20125;-71
2024/04/05 11:27:54;;;;;;;8.10;0.90;;;14.20;99.90;;;;;;5043342;28;20033;-72
2024/04/05 11:30:19;;;;;;;2.88;0.90;;;14.20;99.90;;;;;;5040396;28;20035;-68
2024/04/05 11:32:45;;;;;;;4.75;1.25;;;14.30;99.90;;;;;;5042793;28;20385;-71
2024/04/05 11:35:12;;;;;;;3.67;0.55;;;14.20;99.90;;;;;;5037563;28;20034;-72
2024/04/05 11:37:39;;;;;;;1.65;0.63;;;14.30;99.90;;;;;;5042454;28;20033;-71
2024/04/05 11:40:06;;;;;;;4.22;1.00;;;14.30;99.90;;;;;;5044258;28;20057;-67
2024/04/05 11:42:32;;;;;;;1.23;0.40;;;14.30;99.90;;;;;;5044334;28;20102;-72
2024/04/05 11:44:57;;;;;;;3.50;0.80;;;14.30;99.90;;;;;;5043935;28;20041;-72
2024/04/05 11:47:24;;;;;;;5.93;1.33;;;14.30;99.90;;;;;;5040731;28;20037;-69
2024/04/05 11:49:50;;;;;;;2.65;0.55;;;14.20;99.90;;;;;;5045448;28;20091;-70
2024/04/05 11:52:15;;;;;;;9.00;0.80;;;14.20;99.90;;;;;;5028459;28;20319;-72
2024/04/05 11:54:42;;;;;;;3.05;0.70;;;14.20;99.90;;;;;;5038932;28;20072;-69
2024/04/05 11:57:13;;;;;;;2.72;0.60;;;14.20;99.90;;;;;;5040394;28;20124;-72
2024/04/05 11:59:38;;;;;;;5.72;0.70;;;14.10;99.90;;;;;;5043404;28;20822;-68
2024/04/05 12:02:04;;;;;;;3.38;0.60;;;14.10;99.90;;;;;;5044799;28;20047;-72
2024/04/05 12:04:30;;;;;;;1.50;0.50;;;14.00;99.90;;;;;;5039022;28;20037;-69
2024/04/05 12:06:55;;;;;;;3.70;0.50;;;14.00;99.90;;;;;;5038857;28;20106;-72
2024/04/05 12:09:21;;;;;;;6.35;0.80;;;14.20;99.90;;;;;;5016528;28;20453;-72
2024/04/05 12:11:48;;;;;;;5.00;0.90;;;14.30;99.90;;;;;;5012149;28;20750;-71
2024/04/05 12:14:14;;;;;;;3.67;0.75;;;14.50;99.90;;;;;;5023240;28;20037;-71
2024/04/05 12:16:40;;;;;;;7.03;0.90;;;14.60;99.90;;;;;;5016134;28;20069;-69
2024/04/05 12:19:06;;;;;;;4.50;0.70;;;14.70;99.90;;;;;;5014710;28;20048;-71
2024/04/05 12:21:33;;;;;;;4.28;0.80;;;14.80;99.90;;;;;;5021732;28;20442;-71
2024/04/05 12:23:59;;;;;;;3.47;0.73;;;14.80;99.90;;;;;;5029692;28;20144;-72
2024/04/05 12:26:24;;;;;;;5.32;0.68;;;14.90;99.90;;;;;;5038159;28;20033;-74
2024/04/05 12:28:50;;;;;;;3.67;1.20;;;14.90;99.90;;;;;;5037032;28;20025;-70
2024/04/05 12:31:16;;;;;;;4.00;0.60;;;15.00;99.90;;;;;;5036398;28;20036;-71
2024/04/05 12:33:41;;;;;;;7.13;1.23;;;15.00;99.90;;;;;;5037063;28;20061;-71
2024/04/05 12:36:09;;;;;;;3.95;0.43;;;15.10;99.90;;;;;;5035864;28;20501;-72
2024/04/05 12:38:44;;;;;;;2.47;0.60;;;15.10;99.90;;;;;;5044286;28;20464;-73